Time;durP1;ratioP1;P1;durP2;ratioP2;P2;SDS_P1;SDS_P2;PMS_P1;PMS_P2;Temp;Humidity;BMP_temperature;BMP_pressure;BME280_temperature;BME280_humidity;BME280_pressure;Samples;Min_cycle;Max_cycle;Signal;HPM_P1;HPM_P2
2022/05/24 00:00:24;;;;;;;;;;;12.70;99.90;;;;;;4968894;28;19926;-65
2022/05/24 00:02:51;;;;;;;;;;;12.60;99.90;;;;;;4970979;28;20009;-65
2022/05/24 00:05:18;;;;;;;;;;;12.60;99.90;;;;;;4973857;28;19933;-65
2022/05/24 00:07:45;;;;;;;;;;;12.50;99.90;;;;;;4977773;28;20020;-65
2022/05/24 00:10:13;;;;;;;;;;;12.40;99.90;;;;;;4969402;28;19930;-65
2022/05/24 00:12:41;;;;;;;;;;;12.40;99.90;;;;;;4969399;28;19986;-66
2022/05/24 00:15:23;;;;;;;;;;;12.30;99.90;;;;;;4976868;28;20389;-65
2022/05/24 00:17:51;;;;;;;;;;;12.30;99.90;;;;;;4979688;28;19930;-65
2022/05/24 00:20:18;;;;;;;;;;;12.30;99.90;;;;;;4977871;28;19930;-65
2022/05/24 00:22:45;;;;;;;;;;;12.20;99.90;;;;;;4988665;28;20269;-65
2022/05/24 00:25:12;;;;;;;;;;;12.20;99.90;;;;;;4971216;28;20024;-65
2022/05/24 00:27:39;;;;;;;;;;;12.20;99.90;;;;;;4971444;28;20041;-65
2022/05/24 00:30:08;;;;;;;;;;;12.20;99.90;;;;;;4967145;28;19926;-65
2022/05/24 00:32:35;;;;;;;;;;;12.20;99.90;;;;;;4967666;28;19926;-66
2022/05/24 00:35:01;;;;;;;;;;;12.20;99.90;;;;;;4974763;28;19934;-65
2022/05/24 00:37:29;;;;;;;;;;;12.10;99.90;;;;;;4969764;28;19926;-65
2022/05/24 00:39:56;;;;;;;;;;;12.10;99.90;;;;;;4978700;28;19926;-66
2022/05/24 00:42:24;;;;;;;;;;;12.10;99.90;;;;;;4966146;28;19945;-65
2022/05/24 00:44:54;;;;;;;;;;;12.10;99.90;;;;;;4976132;28;19926;-65
2022/05/24 00:47:28;;;;;;;;;;;12.10;99.90;;;;;;4970665;28;19933;-65
2022/05/24 00:49:57;;;;;;;;;;;12.10;99.90;;;;;;4975044;28;19933;-65
2022/05/24 00:52:26;;;;;;;;;;;12.10;99.90;;;;;;4972480;28;20403;-65
2022/05/24 00:54:53;;;;;;;;;;;12.00;99.90;;;;;;4972648;28;19926;-65
2022/05/24 00:57:29;;;;;;;;;;;12.00;99.90;;;;;;4972994;28;19934;-65
2022/05/24 01:00:00;;;;;;;;;;;12.00;99.90;;;;;;4991479;28;20380;-65
2022/05/24 01:02:28;;;;;;;;;;;12.00;99.90;;;;;;5014533;28;20301;-65
2022/05/24 01:04:55;;;;;;;;;;;12.00;99.90;;;;;;4968761;28;19930;-65
2022/05/24 01:07:21;;;;;;;;;;;12.00;99.90;;;;;;4983545;28;20308;-65
2022/05/24 01:09:50;;;;;;;;;;;12.00;99.90;;;;;;4974410;28;19927;-66
2022/05/24 01:12:19;;;;;;;;;;;12.00;99.90;;;;;;4966917;28;19926;-65
2022/05/24 01:14:46;;;;;;;;;;;12.10;99.90;;;;;;4974594;28;19968;-65
2022/05/24 01:17:13;;;;;;;;;;;12.10;99.90;;;;;;4978660;28;19926;-65
2022/05/24 01:19:43;;;;;;;;;;;12.10;99.90;;;;;;4967623;28;19926;-65
2022/05/24 01:22:25;;;;;;;;;;;12.10;99.90;;;;;;4984462;28;20412;-65
2022/05/24 01:24:54;;;;;;;;;;;12.00;99.90;;;;;;4965205;28;20396;-65
2022/05/24 01:27:22;;;;;;;;;;;12.00;99.90;;;;;;5022950;28;20015;-64
2022/05/24 01:29:49;;;;;;;;;;;12.00;99.90;;;;;;4987060;28;19936;-65
2022/05/24 01:37:44;;;;;;;;;;;11.90;99.90;;;;;;5020703;28;20436;-64
2022/05/24 01:40:11;;;;;;;;;;;11.90;99.90;;;;;;4973229;28;20478;-64
2022/05/24 01:42:39;;;;;;;;;;;11.80;99.90;;;;;;5009698;28;20291;-65
2022/05/24 01:45:08;;;;;;;;;;;11.80;99.90;;;;;;4982492;28;19926;-64
2022/05/24 01:47:35;;;;;;;;;;;11.70;99.90;;;;;;5008924;28;19931;-65
2022/05/24 01:50:03;;;;;;;;;;;11.70;99.90;;;;;;4985401;28;19933;-66
2022/05/24 01:52:32;;;;;;;;;;;11.70;99.90;;;;;;4980501;28;19928;-65
2022/05/24 01:55:08;;;;;;;;;;;11.60;99.90;;;;;;4980793;28;19926;-65
2022/05/24 01:57:37;;;;;;;;;;;11.60;99.90;;;;;;4988770;28;20026;-65
2022/05/24 02:00:06;;;;;;;;;;;11.60;99.90;;;;;;4982292;28;19926;-64
2022/05/24 02:02:33;;;;;;;;;;;11.60;99.90;;;;;;5024712;28;19940;-64
2022/05/24 02:05:00;;;;;;;;;;;11.60;99.90;;;;;;4989200;28;19928;-64
2022/05/24 02:07:30;;;;;;;;;;;11.70;99.90;;;;;;5016116;28;19930;-64
2022/05/24 02:09:57;;;;;;;;;;;11.70;99.90;;;;;;4997507;28;19926;-66
2022/05/24 02:12:25;;;;;;;;;;;11.70;99.90;;;;;;5013629;28;19974;-66
2022/05/24 02:14:53;;;;;;;;;;;11.70;99.90;;;;;;4993172;28;20025;-64
2022/05/24 02:17:23;;;;;;;;;;;11.70;99.90;;;;;;4973799;28;20020;-65
2022/05/24 02:19:51;;;;;;;;;;;11.80;99.90;;;;;;4974167;28;19930;-65
2022/05/24 02:22:20;;;;;;;;;;;11.80;99.90;;;;;;5036110;28;19960;-65
2022/05/24 02:24:54;;;;;;;;;;;11.80;99.90;;;;;;5022962;28;19930;-64
2022/05/24 02:27:20;;;;;;;;;;;11.90;99.90;;;;;;4994195;28;20380;-65
2022/05/24 02:29:47;;;;;;;;;;;11.90;99.90;;;;;;4972027;28;20016;-65
2022/05/24 02:32:14;;;;;;;;;;;11.90;99.90;;;;;;4976257;28;19930;-64
2022/05/24 02:34:42;;;;;;;;;;;11.90;99.90;;;;;;4995887;28;19965;-64
2022/05/24 02:37:08;;;;;;;;;;;11.90;99.90;;;;;;4976174;28;19932;-65
2022/05/24 02:41:28;;;;;;;;;;;11.80;99.90;;;;;;4985165;28;20026;-65
2022/05/24 02:42:21;;;;;;;;;;;11.80;99.90;;;;;;4972464;28;19993;-64
2022/05/24 02:44:47;;;;;;;;;;;11.80;99.90;;;;;;4967847;28;20337;-64
2022/05/24 02:47:14;;;;;;;;;;;11.80;99.90;;;;;;4974288;28;20300;-64
2022/05/24 02:49:42;;;;;;;;;;;11.90;99.90;;;;;;4976950;28;20063;-64
2022/05/24 02:52:09;;;;;;;;;;;11.80;99.90;;;;;;5023575;28;19931;-64
2022/05/24 02:54:35;;;;;;;;;;;11.80;99.90;;;;;;4991233;28;19931;-64
2022/05/24 02:57:04;;;;;;;;;;;11.80;99.90;;;;;;4992998;28;20016;-64
2022/05/24 02:59:31;;;;;;;;;;;11.80;99.90;;;;;;4981882;28;19926;-64
2022/05/24 03:01:58;;;;;;;;;;;11.80;99.90;;;;;;4966344;28;20407;-64
2022/05/24 03:04:25;;;;;;;;;;;11.80;99.90;;;;;;4970466;28;19940;-64
2022/05/24 03:09:37;;;;;;;;;;;11.80;99.90;;;;;;4987637;28;20305;-64
2022/05/24 03:14:50;;;;;;;;;;;11.80;99.90;;;;;;4983116;28;20349;-64
2022/05/24 03:17:16;;;;;;;;;;;11.70;99.90;;;;;;5012296;28;20509;-64
2022/05/24 03:19:43;;;;;;;;;;;11.70;99.90;;;;;;4989015;28;19933;-64
2022/05/24 03:22:12;;;;;;;;;;;11.70;99.90;;;;;;4989352;28;19930;-64
2022/05/24 03:24:39;;;;;;;;;;;11.80;99.90;;;;;;4993633;28;19933;-65
2022/05/24 03:27:11;;;;;;;;;;;11.80;99.90;;;;;;4977540;28;19962;-67
2022/05/24 03:29:38;;;;;;;;;;;11.80;99.90;;;;;;4985422;28;19934;-65
2022/05/24 03:32:05;;;;;;;;;;;11.80;99.90;;;;;;4966024;28;20266;-65
2022/05/24 03:34:32;;;;;;;;;;;11.80;99.90;;;;;;4971085;28;19926;-64
2022/05/24 03:36:58;;;;;;;;;;;11.80;99.90;;;;;;4992679;28;19932;-64
2022/05/24 03:39:26;;;;;;;;;;;11.80;99.90;;;;;;4989607;28;20015;-64
2022/05/24 03:41:53;;;;;;;;;;;11.70;99.90;;;;;;4985789;28;19947;-64
2022/05/24 03:44:20;;;;;;;;;;;11.70;99.90;;;;;;5012112;28;20029;-65
2022/05/24 03:46:48;;;;;;;;;;;11.70;99.90;;;;;;4984298;28;19933;-65
2022/05/24 03:49:14;;;;;;;;;;;11.70;99.90;;;;;;4973494;28;20346;-64
2022/05/24 03:51:41;;;;;;;;;;;11.60;99.90;;;;;;4977711;28;19941;-66
2022/05/24 03:54:08;;;;;;;;;;;11.60;99.90;;;;;;4983306;28;19974;-65
2022/05/24 03:56:36;;;;;;;;;;;11.60;99.90;;;;;;5003771;28;19925;-65
2022/05/24 03:59:03;;;;;;;;;;;11.60;99.90;;;;;;4965352;28;20028;-65
2022/05/24 04:01:30;;;;;;;;;;;11.50;99.90;;;;;;4972589;28;19965;-64
2022/05/24 04:03:57;;;;;;;;;;;11.60;99.90;;;;;;4966614;28;19933;-65
2022/05/24 04:06:23;;;;;;;;;;;11.60;99.90;;;;;;5024327;28;19933;-65
2022/05/24 04:08:50;;;;;;;;;;;11.60;99.90;;;;;;5028722;28;20373;-65
2022/05/24 04:11:17;;;;;;;;;;;11.60;99.90;;;;;;4976249;28;19932;-65
2022/05/24 04:13:45;;;;;;;;;;;11.60;99.90;;;;;;4986173;28;19930;-65
2022/05/24 04:16:11;;;;;;;;;;;11.50;99.90;;;;;;4974130;28;19941;-65
2022/05/24 04:18:38;;;;;;;;;;;11.50;99.90;;;;;;4977143;28;19938;-65
2022/05/24 04:21:05;;;;;;;;;;;11.50;99.90;;;;;;4969595;28;19930;-64
2022/05/24 04:23:32;;;;;;;;;;;11.50;99.90;;;;;;4989849;28;19960;-64
2022/05/24 04:25:59;;;;;;;;;;;11.40;99.90;;;;;;4978637;28;19924;-64
2022/05/24 04:28:25;;;;;;;;;;;11.40;99.90;;;;;;4973599;28;20335;-64
2022/05/24 04:30:53;;;;;;;;;;;11.40;99.90;;;;;;4974368;28;20015;-64
2022/05/24 04:33:20;;;;;;;;;;;11.30;99.90;;;;;;4974435;28;20009;-63
2022/05/24 04:35:47;;;;;;;;;;;11.30;99.90;;;;;;4971396;28;20016;-64
2022/05/24 04:38:14;;;;;;;;;;;11.30;99.90;;;;;;5009389;28;19925;-64
2022/05/24 04:43:27;;;;;;;;;;;11.30;99.90;;;;;;4993490;28;20027;-64
2022/05/24 04:45:56;;;;;;;;;;;11.30;99.90;;;;;;4970372;28;19926;-64
2022/05/24 04:48:23;;;;;;;;;;;11.30;99.90;;;;;;4978876;28;19933;-64
2022/05/24 04:50:52;;;;;;;;;;;11.30;99.90;;;;;;4998336;28;20015;-64
2022/05/24 04:53:18;;;;;;;;;;;11.30;99.90;;;;;;4991024;28;19937;-65
2022/05/24 04:55:47;;;;;;;;;;;11.30;99.90;;;;;;4974789;28;19936;-65
2022/05/24 04:58:14;;;;;;;;;;;11.30;99.90;;;;;;4978436;28;19926;-64
2022/05/24 05:00:40;;;;;;;;;;;11.30;99.90;;;;;;4993772;28;19930;-65
2022/05/24 05:03:09;;;;;;;;;;;11.30;99.90;;;;;;4975777;28;19985;-64
2022/05/24 05:05:36;;;;;;;;;;;11.30;99.90;;;;;;4967407;28;19926;-66
2022/05/24 05:08:04;;;;;;;;;;;11.40;99.90;;;;;;4972095;28;19932;-65
2022/05/24 05:10:33;;;;;;;;;;;11.40;99.90;;;;;;4964169;28;20033;-65
2022/05/24 05:12:59;;;;;;;;;;;11.40;99.90;;;;;;4982942;28;19937;-65
2022/05/24 05:15:26;;;;;;;;;;;11.50;99.90;;;;;;4978579;28;19926;-65
2022/05/24 05:17:57;;;;;;;;;;;11.60;99.90;;;;;;4968799;28;19933;-65
2022/05/24 05:20:25;;;;;;;;;;;11.70;99.90;;;;;;4982365;28;19926;-65
2022/05/24 05:22:52;;;;;;;;;;;11.80;99.90;;;;;;4992107;28;20013;-65
2022/05/24 05:25:18;;;;;;;;;;;11.90;99.90;;;;;;4976148;28;19944;-65
2022/05/24 05:27:45;;;;;;;;;;;12.00;99.90;;;;;;4968160;28;19932;-66
2022/05/24 05:32:56;;;;;;;;;;;12.10;99.90;;;;;;4976256;28;19941;-65
2022/05/24 05:35:22;;;;;;;;;;;12.30;99.90;;;;;;4977431;28;19926;-66
2022/05/24 05:37:51;;;;;;;;;;;12.50;99.90;;;;;;4962806;28;19926;-65
2022/05/24 05:40:17;;;;;;;;;;;12.70;99.90;;;;;;4963324;28;19954;-64
2022/05/24 05:42:44;;;;;;;;;;;12.80;99.90;;;;;;4963265;28;19933;-64
2022/05/24 05:45:12;;;;;;;;;;;12.90;99.90;;;;;;4965119;28;20009;-63
2022/05/24 05:47:39;;;;;;;;;;;12.90;99.90;;;;;;4966621;28;19930;-65
2022/05/24 05:50:06;;;;;;;;;;;12.90;99.90;;;;;;4964266;28;19937;-65
2022/05/24 05:52:32;;;;;;;;;;;12.90;99.90;;;;;;4964622;28;19949;-65
2022/05/24 05:55:00;;;;;;;;;;;13.10;99.90;;;;;;4964371;28;19926;-66
2022/05/24 05:57:27;;;;;;;;;;;14.40;99.90;;;;;;4964183;28;19938;-65
2022/05/24 06:00:00;;;;;;;;;;;15.70;99.90;;;;;;4960924;28;19964;-64
2022/05/24 06:02:27;;;;;;;;;;;16.30;99.90;;;;;;4964875;28;20297;-63
2022/05/24 06:04:53;;;;;;;;;;;16.60;99.30;;;;;;4964202;28;20073;-65
2022/05/24 06:07:22;;;;;;;;;;;16.60;99.60;;;;;;4963263;28;19926;-64
2022/05/24 06:09:49;;;;;;;;;;;15.70;99.10;;;;;;4973027;28;19926;-66
2022/05/24 06:12:17;;;;;;;;;;;14.50;99.90;;;;;;4970232;28;19967;-64
2022/05/24 06:14:43;;;;;;;;;;;13.90;99.90;;;;;;4961974;28;19926;-66
2022/05/24 06:17:10;;;;;;;;;;;14.00;99.90;;;;;;4958362;28;20304;-66
2022/05/24 06:19:37;;;;;;;;;;;13.80;99.90;;;;;;4961550;28;19969;-65
2022/05/24 06:22:04;;;;;;;;;;;14.20;99.90;;;;;;4962932;28;20401;-65
2022/05/24 06:24:31;;;;;;;;;;;15.50;99.90;;;;;;4962675;28;19927;-65
2022/05/24 06:26:58;;;;;;;;;;;15.80;99.90;;;;;;4960890;28;20029;-65
2022/05/24 06:29:26;;;;;;;;;;;15.30;99.90;;;;;;4961417;28;19937;-65
2022/05/24 06:31:53;;;;;;;;;;;14.70;99.90;;;;;;4963991;28;20338;-65
2022/05/24 06:34:19;;;;;;;;;;;14.40;99.90;;;;;;4954701;28;19934;-66
2022/05/24 06:36:46;;;;;;;;;;;14.40;99.90;;;;;;4957434;28;20021;-66
2022/05/24 06:39:13;;;;;;;;;;;14.20;99.90;;;;;;4965397;28;19934;-67
2022/05/24 06:41:39;;;;;;;;;;;14.10;99.90;;;;;;4967840;28;19926;-65
2022/05/24 06:44:06;;;;;;;;;;;13.90;99.90;;;;;;4963940;28;19926;-65
2022/05/24 06:46:34;;;;;;;;;;;14.00;99.90;;;;;;4965512;28;19930;-66
2022/05/24 06:49:01;;;;;;;;;;;14.10;99.90;;;;;;4964243;28;19948;-66
2022/05/24 06:51:27;;;;;;;;;;;14.00;99.90;;;;;;4966693;28;20020;-67
2022/05/24 06:53:54;;;;;;;;;;;13.90;99.90;;;;;;4965165;28;20473;-65
2022/05/24 06:56:21;;;;;;;;;;;13.70;99.90;;;;;;4964191;28;19973;-65
2022/05/24 06:58:47;;;;;;;;;;;13.70;99.90;;;;;;4966218;28;19926;-65
2022/05/24 07:04:01;;;;;;;;;;;14.10;99.90;;;;;;4964087;28;20329;-65
2022/05/24 07:06:27;;;;;;;;;;;14.60;99.90;;;;;;4965777;28;20025;-65
2022/05/24 07:08:54;;;;;;;;;;;16.00;99.30;;;;;;4961001;28;19949;-65
2022/05/24 07:11:22;;;;;;;;;;;16.90;96.20;;;;;;4963819;28;19938;-65
2022/05/24 07:13:49;;;;;;;;;;;18.10;92.20;;;;;;4964827;28;19926;-63
2022/05/24 07:16:15;;;;;;;;;;;19.70;82.70;;;;;;4966311;28;20356;-65
2022/05/24 07:18:42;;;;;;;;;;;18.80;73.70;;;;;;4966810;28;19926;-65
2022/05/24 07:21:11;;;;;;;;;;;18.00;78.50;;;;;;4963544;28;20329;-65
2022/05/24 07:23:38;;;;;;;;;;;18.30;77.00;;;;;;4964015;28;20305;-65
2022/05/24 07:26:09;;;;;;;;;;;17.80;76.30;;;;;;4966125;28;19930;-65
2022/05/24 07:28:36;;;;;;;;;;;17.60;78.70;;;;;;4964413;28;20319;-65
2022/05/24 07:31:03;;;;;;;;;;;18.00;79.00;;;;;;4964659;28;19930;-65
2022/05/24 07:33:30;;;;;;;;;;;17.20;82.90;;;;;;4964062;28;19933;-65
2022/05/24 07:35:57;;;;;;;;;;;16.60;85.30;;;;;;4966846;28;19949;-65
2022/05/24 07:38:25;;;;;;;;;;;16.40;87.10;;;;;;4965327;28;19925;-67
2022/05/24 07:46:20;;;;;;;;;;;16.40;84.60;;;;;;4964632;28;19994;-66
2022/05/24 07:48:46;;;;;;;;;;;17.60;82.30;;;;;;4963165;28;19926;-66
2022/05/24 07:51:13;;;;;;;;;;;17.40;80.50;;;;;;4963955;28;19934;-67
2022/05/24 07:53:41;;;;;;;;;;;16.60;84.10;;;;;;4966376;28;19937;-65
2022/05/24 07:56:08;;;;;;;;;;;15.80;87.20;;;;;;4968197;28;19926;-65
2022/05/24 07:58:35;;;;;;;;;;;15.20;90.80;;;;;;4970414;28;20261;-66
2022/05/24 08:01:02;;;;;;;;;;;15.10;91.30;;;;;;4966540;28;19929;-65
2022/05/24 08:03:29;;;;;;;;;;;15.20;91.40;;;;;;4967676;28;19956;-65
2022/05/24 08:05:56;;;;;;;;;;;15.60;90.00;;;;;;4963649;28;19926;-65
2022/05/24 08:08:23;;;;;;;;;;;16.80;88.00;;;;;;4979460;28;19944;-64
2022/05/24 08:10:51;;;;;;;;;;;18.90;77.90;;;;;;4967419;28;20304;-65
2022/05/24 08:13:19;;;;;;;;;;;19.00;64.50;;;;;;4970432;28;19930;-65
2022/05/24 08:15:46;;;;;;;;;;;17.50;70.00;;;;;;4968681;28;19969;-65
2022/05/24 08:18:13;;;;;;;;;;;18.10;70.40;;;;;;4967938;28;20045;-65
2022/05/24 08:20:39;;;;;;;;;;;18.70;65.40;;;;;;4967574;28;19927;-65
2022/05/24 08:23:07;;;;;;;;;;;17.70;69.10;;;;;;4966448;28;19941;-65
2022/05/24 08:25:34;;;;;;;;;;;18.20;68.40;;;;;;4970147;28;20079;-65
2022/05/24 08:28:05;;;;;;;;;;;17.90;67.30;;;;;;4970613;28;20399;-65
2022/05/24 08:30:31;;;;;;;;;;;17.00;73.20;;;;;;4965962;28;20402;-65
2022/05/24 08:32:58;;;;;;;;;;;17.60;69.90;;;;;;4968830;28;19946;-65
2022/05/24 08:35:25;;;;;;;;;;;18.10;68.20;;;;;;4965075;28;19934;-62
2022/05/24 08:37:52;;;;;;;;;;;19.40;61.40;;;;;;4963445;28;20013;-63
2022/05/24 08:40:20;;;;;;;;;;;18.60;60.00;;;;;;4967611;28;20367;-63
2022/05/24 08:43:04;;;;;;;;;;;17.90;62.20;;;;;;4964457;28;19941;-62
2022/05/24 08:48:25;;;;;;;;;;;16.80;69.40;;;;;;4970257;28;19933;-63
2022/05/24 08:50:53;;;;;;;;;;;16.40;73.50;;;;;;4965307;28;19926;-62
2022/05/24 08:53:26;;;;;;;;;;;16.00;83.30;;;;;;4967441;28;20413;-63
2022/05/24 08:55:52;;;;;;;;;;;16.20;89.10;;;;;;4966787;28;19926;-63
2022/05/24 08:58:26;;;;;;;;;;;18.70;80.00;;;;;;4969240;28;20296;-63
2022/05/24 09:00:54;;;;;;;;;;;19.10;63.30;;;;;;4964983;28;19933;-63
2022/05/24 09:03:24;;;;;;;;;;;18.40;65.40;;;;;;4968512;28;19935;-64
2022/05/24 09:05:55;;;;;;;;;;;17.80;66.70;;;;;;4967362;28;19933;-63
2022/05/24 09:08:26;;;;;;;;;;;17.30;70.10;;;;;;4966788;28;19926;-63
2022/05/24 09:10:54;;;;;;;;;;;17.00;73.10;;;;;;4965156;28;19931;-63
2022/05/24 09:13:31;;;;;;;;;;;17.00;73.60;;;;;;4961616;28;20349;-65
2022/05/24 09:16:01;;;;;;;;;;;17.10;72.40;;;;;;4958581;28;20035;-64
2022/05/24 09:18:34;;;;;;;;;;;18.30;67.80;;;;;;4962563;28;19935;-65
2022/05/24 09:21:01;;;;;;;;;;;20.00;61.10;;;;;;4962295;28;19934;-65
2022/05/24 09:23:30;;;;;;;;;;;21.60;53.10;;;;;;4960749;28;19964;-62
2022/05/24 09:25:58;;;;;;;;;;;22.10;44.30;;;;;;4957773;28;20300;-64
2022/05/24 09:28:44;;;;;;;;;;;21.70;39.70;;;;;;4960007;28;20316;-64
2022/05/24 09:31:17;;;;;;;;;;;20.40;41.80;;;;;;4963052;28;20017;-64
2022/05/24 09:33:44;;;;;;;;;;;20.00;43.10;;;;;;4964132;28;19930;-64
2022/05/24 09:36:25;;;;;;;;;;;20.10;43.70;;;;;;4963789;28;19930;-63
2022/05/24 09:38:51;;;;;;;;;;;19.00;45.20;;;;;;4964995;28;19940;-66
2022/05/24 09:41:19;;;;;;;;;;;18.20;48.30;;;;;;4976053;28;20025;-67
2022/05/24 09:43:58;;;;;;;;;;;17.70;50.90;;;;;;4964578;28;19934;-67
2022/05/24 09:46:27;;;;;;;;;;;17.80;53.10;;;;;;4966052;28;19926;-67
2022/05/24 09:48:56;;;;;;;;;;;18.60;51.80;;;;;;4964123;28;20389;-67
2022/05/24 09:51:25;;;;;;;;;;;18.40;47.80;;;;;;4962766;28;19926;-64
2022/05/24 09:53:53;;;;;;;;;;;17.80;47.10;;;;;;4963834;28;19926;-65
2022/05/24 09:56:21;;;;;;;;;;;17.30;50.10;;;;;;4961142;28;19934;-65
2022/05/24 09:58:52;;;;;;;;;;;17.20;54.10;;;;;;4968273;28;20377;-65
2022/05/24 10:01:31;;;;;;;;;;;17.10;55.70;;;;;;4965087;28;19926;-65
2022/05/24 10:04:10;;;;;;;;;;;17.10;56.70;;;;;;4960928;28;19960;-65
2022/05/24 10:06:37;;;;;;;;;;;17.20;58.80;;;;;;4961791;28;20028;-65
2022/05/24 10:09:05;;;;;;;;;;;17.60;57.50;;;;;;4961852;28;19934;-65
2022/05/24 10:11:35;;;;;;;;;;;17.90;56.90;;;;;;4962669;28;20163;-65
2022/05/24 10:14:19;;;;;;;;;;;18.20;56.20;;;;;;4959976;28;19926;-65
2022/05/24 10:16:50;;;;;;;;;;;18.90;57.00;;;;;;4959920;28;19934;-65
2022/05/24 10:19:25;;;;;;;;;;;19.10;53.00;;;;;;4964979;28;19948;-64
2022/05/24 10:21:57;;;;;;;;;;;18.70;54.00;;;;;;4961615;28;19934;-65
2022/05/24 10:24:27;;;;;;;;;;;18.50;54.80;;;;;;4960510;28;19934;-65
2022/05/24 10:26:57;;;;;;;;;;;18.20;53.90;;;;;;4961086;28;19926;-65
2022/05/24 10:29:30;;;;;;;;;;;17.70;56.10;;;;;;4959022;28;19930;-64
2022/05/24 10:32:02;;;;;;;;;;;17.30;59.30;;;;;;4963486;28;19940;-64
2022/05/24 10:40:22;;;;;;;;;;;17.40;59.40;;;;;;4973397;28;20497;-64
2022/05/24 10:42:57;;;;;;;;;;;17.60;61.70;;;;;;4962810;28;20223;-64
2022/05/24 10:45:49;;;;;;;;;;;17.80;57.70;;;;;;4965497;28;19931;-64
2022/05/24 10:48:16;;;;;;;;;;;18.10;52.90;;;;;;4959037;28;19934;-64
2022/05/24 10:50:45;;;;;;;;;;;18.00;48.20;;;;;;4960512;28;19948;-64
2022/05/24 10:53:16;;;;;;;;;;;18.00;48.80;;;;;;4962272;28;19941;-64
2022/05/24 10:55:45;;;;;;;;;;;17.80;46.40;;;;;;4959035;28;19925;-64
2022/05/24 10:58:12;;;;;;;;;;;17.90;48.10;;;;;;4962846;28;20016;-65
2022/05/24 11:00:41;;;;;;;;;;;18.10;47.90;;;;;;4956163;28;19926;-64
2022/05/24 11:03:09;;;;;;;;;;;18.50;47.20;;;;;;4958276;28;19934;-63
2022/05/24 11:05:38;;;;;;;;;;;18.70;47.00;;;;;;4960757;28;20076;-63
2022/05/24 11:08:11;;;;;;;;;;;18.80;48.40;;;;;;4957842;28;19945;-64
2022/05/24 11:10:42;;;;;;;;;;;18.00;52.10;;;;;;4959887;28;20931;-65
2022/05/24 11:13:10;;;;;;;;;;;17.90;51.80;;;;;;4959702;28;19935;-64
2022/05/24 11:15:40;;;;;;;;;;;18.10;47.30;;;;;;4958962;28;19934;-65
2022/05/24 11:18:12;;;;;;;;;;;18.00;47.60;;;;;;4964272;28;19934;-64
2022/05/24 11:20:41;;;;;;;;;;;17.80;47.90;;;;;;4962267;28;19934;-64
2022/05/24 11:23:10;;;;;;;;;;;17.80;48.70;;;;;;4965410;28;19930;-66
2022/05/24 11:25:39;;;;;;;;;;;17.40;48.50;;;;;;4966619;28;20025;-65
2022/05/24 11:28:12;;;;;;;;;;;17.10;47.00;;;;;;4967528;28;19933;-64
2022/05/24 11:30:40;;;;;;;;;;;17.40;49.60;;;;;;4967659;28;20472;-64
2022/05/24 11:33:09;;;;;;;;;;;17.60;49.10;;;;;;4969545;28;19932;-64
2022/05/24 11:35:39;;;;;;;;;;;17.30;49.40;;;;;;4970497;28;19980;-65
2022/05/24 11:38:12;;;;;;;;;;;17.50;49.70;;;;;;4968790;28;19942;-64
2022/05/24 11:40:40;;;;;;;;;;;17.50;51.10;;;;;;4966902;28;19969;-64
2022/05/24 11:43:08;;;;;;;;;;;17.20;51.70;;;;;;4970306;28;19926;-64
2022/05/24 11:45:56;;;;;;;;;;;16.70;54.30;;;;;;4969573;28;19926;-66
2022/05/24 11:48:23;;;;;;;;;;;16.50;55.10;;;;;;4971460;28;20304;-63
2022/05/24 11:50:51;;;;;;;;;;;16.70;57.10;;;;;;4971315;28;20109;-64
2022/05/24 11:53:36;;;;;;;;;;;16.90;56.10;;;;;;4971149;28;19926;-64
2022/05/24 11:56:13;;;;;;;;;;;17.00;56.20;;;;;;4968971;28;20108;-64
2022/05/24 11:58:48;;;;;;;;;;;17.20;56.50;;;;;;4967047;28;19933;-64
2022/05/24 12:01:33;;;;;;;;;;;17.80;58.20;;;;;;4971063;28;19933;-64
2022/05/24 12:10:35;;;;;;;;;;;18.00;53.00;;;;;;5002875;28;19992;-64
2022/05/24 12:13:14;;;;;;;;;;;18.20;53.80;;;;;;4980311;28;19934;-64
2022/05/24 12:15:48;;;;;;;;;;;18.00;53.50;;;;;;4965670;28;19948;-64
2022/05/24 12:18:16;;;;;;;;;;;18.10;55.40;;;;;;4968259;28;19934;-65
2022/05/24 12:20:58;;;;;;;;;;;18.40;53.10;;;;;;4967328;28;19933;-65
2022/05/24 12:23:36;;;;;;;;;;;18.70;53.30;;;;;;4968482;28;19934;-65
2022/05/24 12:26:05;;;;;;;;;;;19.00;53.30;;;;;;4969319;28;19926;-64
2022/05/24 12:28:42;;;;;;;;;;;18.70;51.80;;;;;;4969752;28;19930;-65
2022/05/24 12:31:16;;;;;;;;;;;18.20;51.80;;;;;;4970502;28;19934;-64
2022/05/24 12:33:46;;;;;;;;;;;18.00;53.80;;;;;;4969536;28;19941;-64
2022/05/24 12:36:25;;;;;;;;;;;17.90;55.30;;;;;;4969898;28;19926;-64
2022/05/24 12:38:57;;;;;;;;;;;17.80;54.20;;;;;;4965055;28;20021;-65
2022/05/24 12:41:28;;;;;;;;;;;17.60;52.50;;;;;;4967119;28;19934;-64
2022/05/24 12:43:56;;;;;;;;;;;17.80;54.70;;;;;;4966856;28;20296;-64
2022/05/24 12:46:23;;;;;;;;;;;17.90;51.60;;;;;;4963735;28;19927;-64
2022/05/24 12:48:50;;;;;;;;;;;17.90;54.30;;;;;;4967587;28;19941;-65
2022/05/24 12:51:19;;;;;;;;;;;18.20;55.20;;;;;;4963221;28;20409;-65
2022/05/24 12:53:46;;;;;;;;;;;18.20;51.00;;;;;;4966594;28;19930;-65
2022/05/24 12:56:16;;;;;;;;;;;18.10;51.50;;;;;;4961943;28;19932;-63
2022/05/24 12:58:45;;;;;;;;;;;18.10;50.90;;;;;;4968166;28;19927;-64
2022/05/24 13:01:19;;;;;;;;;;;18.00;52.40;;;;;;4965212;28;19930;-62
2022/05/24 13:03:47;;;;;;;;;;;18.10;53.80;;;;;;4964026;28;20304;-63
2022/05/24 13:06:21;;;;;;;;;;;18.10;52.90;;;;;;4964660;28;19977;-63
2022/05/24 13:08:48;;;;;;;;;;;17.90;55.10;;;;;;4967304;28;20463;-62
2022/05/24 13:11:15;;;;;;;;;;;17.70;54.10;;;;;;4961567;28;20060;-62
2022/05/24 13:13:43;;;;;;;;;;;17.70;55.90;;;;;;4967679;28;20025;-62
2022/05/24 13:16:10;;;;;;;;;;;17.60;55.60;;;;;;4965527;28;20278;-62
2022/05/24 13:18:47;;;;;;;;;;;17.40;56.10;;;;;;4967910;28;19930;-62
2022/05/24 13:21:16;;;;;;;;;;;17.30;58.00;;;;;;4966534;28;19930;-63
2022/05/24 13:23:43;;;;;;;;;;;17.00;76.60;;;;;;4967199;28;19927;-62
2022/05/24 13:26:14;;;;;;;;;;;16.90;92.60;;;;;;4974661;28;19925;-62
2022/05/24 13:28:42;;;;;;;;;;;17.30;95.20;;;;;;4962870;28;20050;-62
2022/05/24 13:33:56;;;;;;;;;;;17.20;90.70;;;;;;4969422;28;20499;-62
2022/05/24 13:36:25;;;;;;;;;;;16.80;93.40;;;;;;4965930;28;19932;-63
2022/05/24 13:39:06;;;;;;;;;;;16.60;94.60;;;;;;4965714;28;19926;-62
2022/05/24 13:41:36;;;;;;;;;;;16.70;96.40;;;;;;4964609;28;19926;-63
2022/05/24 13:44:07;;;;;;;;;;;16.80;96.10;;;;;;4966118;28;20109;-62
2022/05/24 13:46:48;;;;;;;;;;;17.30;95.50;;;;;;4960842;28;19934;-62
2022/05/24 13:49:25;;;;;;;;;;;17.60;91.70;;;;;;4963052;28;20051;-62
2022/05/24 13:51:52;;;;;;;;;;;17.50;91.90;;;;;;4960623;28;19941;-63
2022/05/24 13:54:32;;;;;;;;;;;17.20;91.10;;;;;;4961435;28;19933;-63
2022/05/24 13:56:58;;;;;;;;;;;17.00;91.20;;;;;;4960975;28;20016;-64
2022/05/24 13:59:25;;;;;;;;;;;16.90;91.20;;;;;;4962708;28;19934;-64
2022/05/24 14:01:55;;;;;;;;;;;16.90;90.10;;;;;;4960582;28;19945;-64
2022/05/24 14:04:23;;;;;;;;;;;16.70;89.30;;;;;;4959310;28;19958;-65
2022/05/24 14:06:51;;;;;;;;;;;16.30;91.00;;;;;;4955758;28;20003;-65
2022/05/24 14:09:18;;;;;;;;;;;15.40;95.60;;;;;;4961662;28;19983;-66
2022/05/24 14:11:50;;;;;;;;;;;14.70;99.90;;;;;;4963540;28;20411;-65
2022/05/24 14:14:17;;;;;;;;;;;14.20;98.00;;;;;;4958907;28;19926;-66
2022/05/24 14:16:44;;;;;;;;;;;14.00;99.30;;;;;;4964916;28;19934;-66
2022/05/24 14:19:13;;;;;;;;;;;14.00;99.90;;;;;;4963601;28;19934;-65
2022/05/24 14:21:41;;;;;;;;;;;14.10;99.90;;;;;;4963335;28;19933;-65
2022/05/24 14:24:12;;;;;;;;;;;14.20;99.90;;;;;;4961531;28;19937;-64
2022/05/24 14:26:39;;;;;;;;;;;14.40;99.90;;;;;;4988416;28;20033;-62
2022/05/24 14:29:06;;;;;;;;;;;15.00;99.90;;;;;;4963623;28;19961;-64
2022/05/24 14:31:33;;;;;;;;;;;15.70;99.90;;;;;;4965706;28;19926;-64
2022/05/24 14:34:00;;;;;;;;;;;16.30;99.90;;;;;;4966208;28;19939;-64
2022/05/24 14:36:28;;;;;;;;;;;16.50;99.90;;;;;;4968640;28;20309;-63
2022/05/24 14:38:55;;;;;;;;;;;16.70;99.10;;;;;;4963123;28;19933;-64
2022/05/24 14:41:22;;;;;;;;;;;17.00;99.20;;;;;;4964121;28;20120;-64
2022/05/24 14:43:51;;;;;;;;;;;16.80;97.90;;;;;;4965524;28;19949;-64
2022/05/24 14:46:18;;;;;;;;;;;16.50;95.90;;;;;;4965260;28;20013;-64
2022/05/24 14:48:46;;;;;;;;;;;16.50;99.10;;;;;;4966810;28;19934;-65
2022/05/24 14:51:14;;;;;;;;;;;16.70;99.10;;;;;;4956754;28;20010;-63
2022/05/24 14:53:43;;;;;;;;;;;17.00;97.80;;;;;;4965413;28;19934;-63
2022/05/24 14:56:10;;;;;;;;;;;17.20;97.60;;;;;;4963068;28;20373;-63
2022/05/24 14:58:36;;;;;;;;;;;17.30;94.70;;;;;;4965273;28;20025;-63
2022/05/24 15:01:04;;;;;;;;;;;17.20;95.10;;;;;;4965193;28;19966;-62
2022/05/24 15:03:30;;;;;;;;;;;17.00;93.10;;;;;;4955915;28;20029;-64
2022/05/24 15:05:57;;;;;;;;;;;17.10;95.10;;;;;;4967772;28;19938;-64
2022/05/24 15:16:38;;;;;;;;;;;17.90;86.80;;;;;;4960892;28;19941;-63